createdAt,value
2019-01-31T00:00:14.506Z,993.41
2019-01-31T00:01:14.439Z,993.45
2019-01-31T00:02:14.445Z,993.37
2019-01-31T00:03:14.457Z,993.40
2019-01-31T00:04:14.465Z,993.38
2019-01-31T00:05:14.476Z,993.40
2019-01-31T00:06:14.487Z,993.40
2019-01-31T00:07:14.498Z,993.34
2019-01-31T00:08:14.503Z,993.38
2019-01-31T00:09:14.513Z,993.39
2019-01-31T00:10:14.520Z,993.38
2019-01-31T00:11:14.531Z,993.38
2019-01-31T00:12:14.541Z,993.37
2019-01-31T00:13:14.548Z,993.43
2019-01-31T00:14:14.558Z,993.41
2019-01-31T00:15:14.566Z,993.46
2019-01-31T00:16:14.575Z,993.45
2019-01-31T00:17:14.586Z,993.46
2019-01-31T00:18:14.594Z,993.46
2019-01-31T00:19:14.605Z,993.43
2019-01-31T00:20:14.615Z,993.43
2019-01-31T00:21:14.625Z,993.43
2019-01-31T00:22:14.631Z,993.43
2019-01-31T00:23:14.640Z,993.43
2019-01-31T00:24:14.649Z,993.44
2019-01-31T00:25:14.658Z,993.42
2019-01-31T00:26:14.669Z,993.41
2019-01-31T00:27:14.677Z,993.44
2019-01-31T00:28:14.684Z,993.43
2019-01-31T00:29:14.696Z,993.41
2019-01-31T00:30:14.706Z,993.46
2019-01-31T00:31:14.715Z,993.39
2019-01-31T00:32:14.722Z,993.42
2019-01-31T00:33:14.733Z,993.41
2019-01-31T00:34:14.740Z,993.41
2019-01-31T00:35:14.750Z,993.37
2019-01-31T00:36:14.761Z,993.37
2019-01-31T00:37:14.771Z,993.40
2019-01-31T00:38:14.777Z,993.41
2019-01-31T00:39:14.790Z,993.38
2019-01-31T00:40:14.798Z,993.39
2019-01-31T00:41:14.804Z,993.39
2019-01-31T00:42:14.815Z,993.38
2019-01-31T00:43:14.825Z,993.37
2019-01-31T00:44:14.839Z,993.39
2019-01-31T00:45:14.845Z,993.41
2019-01-31T00:46:14.851Z,993.42
2019-01-31T00:47:14.860Z,993.42
2019-01-31T00:48:14.872Z,993.40
2019-01-31T00:49:14.883Z,993.43
2019-01-31T00:50:14.890Z,993.44
2019-01-31T00:51:14.898Z,993.46
2019-01-31T00:52:14.908Z,993.49
2019-01-31T00:53:14.915Z,993.47
2019-01-31T00:54:14.926Z,993.47
2019-01-31T00:55:14.936Z,993.45
2019-01-31T00:56:14.946Z,993.46
2019-01-31T00:57:14.955Z,993.54
2019-01-31T00:58:14.964Z,993.49
2019-01-31T00:59:14.974Z,993.47
2019-01-31T01:00:14.983Z,993.48
2019-01-31T01:01:14.992Z,993.54
2019-01-31T01:02:15.002Z,993.54
2019-01-31T01:03:15.009Z,993.52
2019-01-31T01:04:15.020Z,993.52
2019-01-31T01:05:15.040Z,993.53
2019-01-31T01:06:15.067Z,993.54
2019-01-31T01:07:15.127Z,993.54
2019-01-31T01:08:15.120Z,993.56
2019-01-31T01:09:15.124Z,993.58
2019-01-31T01:10:15.111Z,993.58
2019-01-31T01:11:15.120Z,993.59
2019-01-31T01:12:15.179Z,993.56
2019-01-31T01:13:15.175Z,993.59
2019-01-31T01:14:15.178Z,993.53
2019-01-31T01:15:15.175Z,993.57
2019-01-31T01:16:15.176Z,993.54
2019-01-31T01:17:15.181Z,993.56
2019-01-31T01:18:15.186Z,993.57
2019-01-31T01:19:15.172Z,993.54
2019-01-31T01:20:15.181Z,993.59
2019-01-31T01:21:15.177Z,993.54
2019-01-31T01:22:15.188Z,993.58
2019-01-31T01:23:15.199Z,993.57
2019-01-31T01:24:15.209Z,993.61
2019-01-31T01:25:15.215Z,993.67
2019-01-31T01:26:15.223Z,993.66
2019-01-31T01:27:15.235Z,993.69
2019-01-31T01:28:15.242Z,993.68
2019-01-31T01:29:15.253Z,993.70
2019-01-31T01:30:15.259Z,993.69
2019-01-31T01:31:15.269Z,993.67
2019-01-31T01:32:15.280Z,993.65
2019-01-31T01:33:15.290Z,993.67
2019-01-31T01:34:15.299Z,993.67
2019-01-31T01:35:15.304Z,993.70
2019-01-31T01:36:15.316Z,993.69
2019-01-31T01:37:15.325Z,993.68
2019-01-31T01:38:15.335Z,993.66
2019-01-31T01:39:19.407Z,993.70
2019-01-31T01:40:15.354Z,993.65
2019-01-31T01:41:15.363Z,993.66
2019-01-31T01:42:15.372Z,993.66
2019-01-31T01:43:15.380Z,993.66
2019-01-31T01:44:15.389Z,993.66
2019-01-31T01:45:15.401Z,993.67
2019-01-31T01:46:15.408Z,993.62
2019-01-31T01:47:15.418Z,993.65
2019-01-31T01:48:15.427Z,993.63
2019-01-31T01:49:15.439Z,993.63
2019-01-31T01:50:15.446Z,993.65
2019-01-31T01:51:15.458Z,993.65
2019-01-31T01:52:15.464Z,993.64
2019-01-31T01:53:15.474Z,993.65
2019-01-31T01:54:15.484Z,993.65
2019-01-31T01:55:15.492Z,993.63
2019-01-31T01:56:15.502Z,993.63
2019-01-31T01:57:15.510Z,993.70
2019-01-31T01:58:15.521Z,993.67
2019-01-31T01:59:15.529Z,993.68
2019-01-31T02:00:15.538Z,993.69
2019-01-31T02:01:15.549Z,993.65
2019-01-31T02:02:15.555Z,993.63
2019-01-31T02:03:15.567Z,993.60
2019-01-31T02:04:15.582Z,993.61
2019-01-31T02:05:15.584Z,993.65
2019-01-31T02:06:15.593Z,993.63
2019-01-31T02:07:15.605Z,993.63
2019-01-31T02:08:15.614Z,993.64
2019-01-31T02:09:15.622Z,993.62
2019-01-31T02:10:15.636Z,993.63
2019-01-31T02:11:15.642Z,993.65
2019-01-31T02:12:15.654Z,993.67
2019-01-31T02:13:15.660Z,993.65
2019-01-31T02:14:15.670Z,993.68
2019-01-31T02:15:15.679Z,993.66
2019-01-31T02:16:15.688Z,993.64
2019-01-31T02:17:15.700Z,993.65
2019-01-31T02:18:15.705Z,993.61
2019-01-31T02:19:15.714Z,993.57
2019-01-31T02:20:15.726Z,993.61
2019-01-31T02:21:15.736Z,993.51
2019-01-31T02:22:15.742Z,993.60
2019-01-31T02:23:15.758Z,993.57
2019-01-31T02:24:15.762Z,993.57
2019-01-31T02:25:15.775Z,993.57
2019-01-31T02:26:15.783Z,993.56
2019-01-31T02:27:15.790Z,993.56
2019-01-31T02:28:15.800Z,993.54
2019-01-31T02:29:15.809Z,993.57
2019-01-31T02:30:15.819Z,993.58
2019-01-31T02:31:15.829Z,993.60
2019-01-31T02:32:15.840Z,993.55
2019-01-31T02:33:15.851Z,993.55
2019-01-31T02:34:15.859Z,993.58
2019-01-31T02:35:15.866Z,993.58
2019-01-31T02:36:15.875Z,993.55
2019-01-31T02:37:15.889Z,993.53
2019-01-31T02:38:15.895Z,993.56
2019-01-31T02:39:15.905Z,993.55
2019-01-31T02:40:15.917Z,993.54
2019-01-31T02:41:15.921Z,993.53
2019-01-31T02:42:15.934Z,993.56
2019-01-31T02:43:15.975Z,993.60
2019-01-31T02:44:15.955Z,993.57
2019-01-31T02:45:15.959Z,993.56
2019-01-31T02:46:15.970Z,993.56
2019-01-31T02:47:15.978Z,993.62
2019-01-31T02:48:15.991Z,993.55
2019-01-31T02:49:15.998Z,993.56
2019-01-31T02:50:16.009Z,993.57
2019-01-31T02:51:16.020Z,993.61
2019-01-31T02:52:16.024Z,993.61
2019-01-31T02:53:16.035Z,993.55
2019-01-31T02:54:16.046Z,993.60
2019-01-31T02:55:16.055Z,993.59
2019-01-31T02:56:16.066Z,993.58
2019-01-31T02:57:16.077Z,993.58
2019-01-31T02:58:16.083Z,993.61
2019-01-31T02:59:16.093Z,993.65
2019-01-31T03:00:16.101Z,993.61
2019-01-31T03:01:16.110Z,993.61
2019-01-31T03:02:16.119Z,993.62
2019-01-31T03:03:16.130Z,993.63
2019-01-31T03:04:16.142Z,993.59
2019-01-31T03:05:16.317Z,993.58
2019-01-31T03:06:16.159Z,993.59
2019-01-31T03:07:16.166Z,993.61
2019-01-31T03:08:16.176Z,993.64
2019-01-31T03:09:16.190Z,993.61
2019-01-31T03:10:16.194Z,993.63
2019-01-31T03:11:16.204Z,993.62
2019-01-31T03:12:16.216Z,993.60
2019-01-31T03:13:16.224Z,993.64
2019-01-31T03:14:16.237Z,993.61
2019-01-31T03:15:16.242Z,993.65
2019-01-31T03:16:16.253Z,993.59
2019-01-31T03:17:16.258Z,993.61
2019-01-31T03:18:16.270Z,993.61
2019-01-31T03:19:16.281Z,993.61
2019-01-31T03:20:16.291Z,993.61
2019-01-31T03:21:16.299Z,993.60
2019-01-31T03:22:16.308Z,993.63
2019-01-31T03:23:16.318Z,993.62
2019-01-31T03:24:16.327Z,993.61
2019-01-31T03:25:16.336Z,993.63
2019-01-31T03:26:16.346Z,993.66
2019-01-31T03:27:16.355Z,993.68
2019-01-31T03:28:16.363Z,993.65
2019-01-31T03:29:16.375Z,993.72
2019-01-31T03:30:16.386Z,993.68
2019-01-31T03:31:16.395Z,993.70
2019-01-31T03:32:16.409Z,993.68
2019-01-31T03:33:16.423Z,993.69
2019-01-31T03:34:16.421Z,993.70
2019-01-31T03:35:16.431Z,993.69
2019-01-31T03:36:16.449Z,993.69
2019-01-31T03:37:16.449Z,993.68
2019-01-31T03:38:16.459Z,993.73
2019-01-31T03:39:16.475Z,993.69
2019-01-31T03:40:16.479Z,993.72
2019-01-31T03:41:16.487Z,993.69
2019-01-31T03:42:16.496Z,993.71
2019-01-31T03:43:16.510Z,993.69
2019-01-31T03:44:16.607Z,993.72
2019-01-31T03:45:16.525Z,993.69
2019-01-31T03:46:16.533Z,993.72
2019-01-31T03:47:16.542Z,993.66
2019-01-31T03:48:16.553Z,993.68
2019-01-31T03:49:16.565Z,993.64
2019-01-31T03:50:16.577Z,993.66
2019-01-31T03:51:16.581Z,993.71
2019-01-31T03:52:16.596Z,993.68
2019-01-31T03:53:16.603Z,993.63
2019-01-31T03:54:16.612Z,993.67
2019-01-31T03:55:16.621Z,993.66
2019-01-31T03:56:16.637Z,993.70
2019-01-31T03:57:16.638Z,993.72
2019-01-31T03:58:16.649Z,993.75
2019-01-31T03:59:16.664Z,993.70
2019-01-31T04:00:16.669Z,993.72
2019-01-31T04:01:16.677Z,993.71
2019-01-31T04:02:16.687Z,993.71
2019-01-31T04:03:16.695Z,993.69
2019-01-31T04:04:16.706Z,993.70
2019-01-31T04:05:16.723Z,993.70
2019-01-31T04:06:16.725Z,993.70
2019-01-31T04:07:16.736Z,993.71
2019-01-31T04:08:16.745Z,993.73
2019-01-31T04:09:16.752Z,993.75
2019-01-31T04:10:18.980Z,993.69
2019-01-31T04:11:16.772Z,993.73
2019-01-31T04:12:16.786Z,993.70
2019-01-31T04:13:16.800Z,993.74
2019-01-31T04:14:16.893Z,993.76
2019-01-31T04:15:16.878Z,993.71
2019-01-31T04:16:16.883Z,993.75
2019-01-31T04:17:16.878Z,993.71
2019-01-31T04:18:16.876Z,993.78
2019-01-31T04:19:16.879Z,993.79
2019-01-31T04:20:16.938Z,993.76
2019-01-31T04:21:16.956Z,993.75
2019-01-31T04:22:16.956Z,993.72
2019-01-31T04:23:16.950Z,993.71
2019-01-31T04:24:16.948Z,993.73
2019-01-31T04:25:16.950Z,993.73
2019-01-31T04:26:16.935Z,993.74
2019-01-31T04:27:16.934Z,993.75
2019-01-31T04:28:16.936Z,993.80
2019-01-31T04:29:16.954Z,993.85
2019-01-31T04:30:16.956Z,993.76
2019-01-31T04:31:16.971Z,993.78
2019-01-31T04:32:16.974Z,993.78
2019-01-31T04:33:16.984Z,993.75
2019-01-31T04:34:16.993Z,993.77
2019-01-31T04:35:17.004Z,993.73
2019-01-31T04:36:17.029Z,993.75
2019-01-31T04:37:17.022Z,993.73
2019-01-31T04:38:19.777Z,993.78
2019-01-31T04:39:17.043Z,993.81
2019-01-31T04:40:17.053Z,993.77
2019-01-31T04:41:17.063Z,993.79
2019-01-31T04:42:17.072Z,993.86
2019-01-31T04:43:17.082Z,993.83
2019-01-31T04:44:17.091Z,993.79
2019-01-31T04:45:17.100Z,993.81
2019-01-31T04:46:17.114Z,993.78
2019-01-31T04:47:17.120Z,993.77
2019-01-31T04:48:17.129Z,993.80
2019-01-31T04:49:17.143Z,993.81
2019-01-31T04:50:17.149Z,993.81
2019-01-31T04:51:17.164Z,993.86
2019-01-31T04:52:17.168Z,993.86
2019-01-31T04:53:17.179Z,993.84
2019-01-31T04:54:17.187Z,993.82
2019-01-31T04:55:17.200Z,993.81
2019-01-31T04:56:17.210Z,993.82
2019-01-31T04:57:17.218Z,993.82
2019-01-31T04:58:17.228Z,993.84
2019-01-31T04:59:17.236Z,993.86
2019-01-31T05:00:17.247Z,993.86
2019-01-31T05:01:17.255Z,993.83
2019-01-31T05:02:17.268Z,993.89
2019-01-31T05:03:17.281Z,993.82
2019-01-31T05:04:17.285Z,993.85
2019-01-31T05:05:17.295Z,993.90
2019-01-31T05:06:17.305Z,993.89
2019-01-31T05:07:17.314Z,993.91
2019-01-31T05:08:17.337Z,993.89
2019-01-31T05:09:17.334Z,993.92
2019-01-31T05:10:17.344Z,993.95
2019-01-31T05:11:17.356Z,993.94
2019-01-31T05:12:17.364Z,993.96
2019-01-31T05:13:17.373Z,993.94
2019-01-31T05:14:17.381Z,993.97
2019-01-31T05:15:17.397Z,993.97
2019-01-31T05:16:17.630Z,993.99
2019-01-31T05:17:17.413Z,993.99
2019-01-31T05:18:17.419Z,994.01
2019-01-31T05:19:17.433Z,993.98
2019-01-31T05:20:17.442Z,994.02
2019-01-31T05:21:17.449Z,994.03
2019-01-31T05:22:17.463Z,994.08
2019-01-31T05:23:17.468Z,994.06
2019-01-31T05:24:17.480Z,994.10
2019-01-31T05:25:17.490Z,994.15
2019-01-31T05:26:17.511Z,994.12
2019-01-31T05:27:17.511Z,994.14
2019-01-31T05:28:17.520Z,994.12
2019-01-31T05:29:17.536Z,994.14
2019-01-31T05:30:17.539Z,994.13
2019-01-31T05:31:17.551Z,994.10
2019-01-31T05:32:17.561Z,994.10
2019-01-31T05:33:17.569Z,994.09
2019-01-31T05:34:17.590Z,994.08
2019-01-31T05:35:17.590Z,994.13
2019-01-31T05:36:17.598Z,994.15
2019-01-31T05:37:17.607Z,994.18
2019-01-31T05:38:17.667Z,994.16
2019-01-31T05:39:17.630Z,994.21
2019-01-31T05:40:17.641Z,994.14
2019-01-31T05:41:17.647Z,994.17
2019-01-31T05:42:17.655Z,994.19
2019-01-31T05:43:17.666Z,994.19
2019-01-31T05:44:17.678Z,994.21
2019-01-31T05:45:17.685Z,994.16
2019-01-31T05:46:18.387Z,994.20
2019-01-31T05:47:17.709Z,994.19
2019-01-31T05:48:17.714Z,994.20
2019-01-31T05:49:17.726Z,994.20
2019-01-31T05:50:17.734Z,994.19
2019-01-31T05:51:17.743Z,994.22
2019-01-31T05:52:17.751Z,994.23
2019-01-31T05:53:17.765Z,994.23
2019-01-31T05:54:17.774Z,994.25
2019-01-31T05:55:17.781Z,994.23
2019-01-31T05:56:17.792Z,994.24
2019-01-31T05:57:17.802Z,994.28
2019-01-31T05:58:17.919Z,994.27
2019-01-31T05:59:17.820Z,994.27
2019-01-31T06:00:17.829Z,994.26
2019-01-31T06:01:17.838Z,994.29
2019-01-31T06:02:17.851Z,994.29
2019-01-31T06:03:17.859Z,994.30
2019-01-31T06:04:17.867Z,994.31
2019-01-31T06:05:17.879Z,994.32
2019-01-31T06:06:17.897Z,994.31
2019-01-31T06:07:17.895Z,994.28
2019-01-31T06:08:17.907Z,994.34
2019-01-31T06:09:17.915Z,994.35
2019-01-31T06:10:17.925Z,994.35
2019-01-31T06:11:17.933Z,994.36
2019-01-31T06:12:17.949Z,994.37
2019-01-31T06:13:17.955Z,994.39
2019-01-31T06:14:17.964Z,994.36
2019-01-31T06:15:17.973Z,994.40
2019-01-31T06:16:17.982Z,994.42
2019-01-31T06:17:17.993Z,994.40
2019-01-31T06:18:18.005Z,994.37
2019-01-31T06:19:18.011Z,994.41
2019-01-31T06:20:18.020Z,994.38
2019-01-31T06:21:18.030Z,994.40
2019-01-31T06:22:18.040Z,994.38
2019-01-31T06:23:18.051Z,994.39
2019-01-31T06:24:18.057Z,994.41
2019-01-31T06:25:18.080Z,994.43
2019-01-31T06:26:18.078Z,994.44
2019-01-31T06:27:18.089Z,994.40
2019-01-31T06:28:18.100Z,994.43
2019-01-31T06:29:18.108Z,994.48
2019-01-31T06:30:18.120Z,994.46
2019-01-31T06:31:18.126Z,994.44
2019-01-31T06:32:18.136Z,994.46
2019-01-31T06:33:18.153Z,994.45
2019-01-31T06:34:18.155Z,994.44
2019-01-31T06:35:18.165Z,994.51
2019-01-31T06:36:18.176Z,994.52
2019-01-31T06:37:18.186Z,994.50
2019-01-31T06:38:18.195Z,994.50
2019-01-31T06:39:20.115Z,994.54
2019-01-31T06:40:18.216Z,994.53
2019-01-31T06:41:18.998Z,994.58
2019-01-31T06:42:18.234Z,994.59
2019-01-31T06:43:18.308Z,994.60
2019-01-31T06:44:18.253Z,994.56
2019-01-31T06:45:18.265Z,994.62
2019-01-31T06:46:18.272Z,994.59
2019-01-31T06:47:18.283Z,994.62
2019-01-31T06:48:18.296Z,994.63
2019-01-31T06:49:18.302Z,994.60
2019-01-31T06:50:18.313Z,994.62
2019-01-31T06:51:18.321Z,994.62
2019-01-31T06:52:18.332Z,994.64
2019-01-31T06:53:18.345Z,994.65
2019-01-31T06:54:18.353Z,994.62
2019-01-31T06:55:18.370Z,994.66
2019-01-31T06:56:18.370Z,994.63
2019-01-31T06:57:18.381Z,994.64
2019-01-31T06:58:18.388Z,994.65
2019-01-31T06:59:18.400Z,994.68
2019-01-31T07:00:18.418Z,994.71
2019-01-31T07:01:18.421Z,994.68
2019-01-31T07:02:18.432Z,994.75
2019-01-31T07:03:18.440Z,994.75
2019-01-31T07:04:18.449Z,994.74
2019-01-31T07:05:18.459Z,994.71
2019-01-31T07:06:18.470Z,994.73
2019-01-31T07:07:18.479Z,994.72
2019-01-31T07:08:18.487Z,994.71
2019-01-31T07:09:18.499Z,994.73
2019-01-31T07:10:18.506Z,994.67
2019-01-31T07:11:29.308Z,994.74
2019-01-31T07:12:18.534Z,994.73
2019-01-31T07:13:18.539Z,994.71
2019-01-31T07:14:18.547Z,994.72
2019-01-31T07:15:18.559Z,994.76
2019-01-31T07:16:18.584Z,994.75
2019-01-31T07:17:18.612Z,994.79
2019-01-31T07:18:18.663Z,994.77
2019-01-31T07:19:18.653Z,994.76
2019-01-31T07:20:18.645Z,994.76
2019-01-31T07:21:18.652Z,994.72
2019-01-31T07:22:18.648Z,994.77
2019-01-31T07:23:18.712Z,994.76
2019-01-31T07:24:18.700Z,994.78
2019-01-31T07:25:18.725Z,994.76
2019-01-31T07:26:18.710Z,994.78
2019-01-31T07:27:18.702Z,994.78
2019-01-31T07:28:18.713Z,994.80
2019-01-31T07:29:18.719Z,994.82
2019-01-31T07:30:18.705Z,994.80
2019-01-31T07:31:18.719Z,994.75
2019-01-31T07:32:18.728Z,994.80
2019-01-31T07:33:18.736Z,994.79
2019-01-31T07:34:18.747Z,994.78
2019-01-31T07:35:18.755Z,994.81
2019-01-31T07:36:18.766Z,994.80
2019-01-31T07:37:18.776Z,994.80
2019-01-31T07:38:18.784Z,994.83
2019-01-31T07:39:18.802Z,994.79
2019-01-31T07:40:18.807Z,994.82
2019-01-31T07:41:18.818Z,994.80
2019-01-31T07:42:18.825Z,994.78
2019-01-31T07:43:18.837Z,994.84
2019-01-31T07:44:18.844Z,994.84
2019-01-31T07:45:18.858Z,994.85
2019-01-31T07:46:18.867Z,994.81
2019-01-31T07:47:18.878Z,994.84
2019-01-31T07:48:18.890Z,994.83
2019-01-31T07:49:18.897Z,994.86
2019-01-31T07:50:18.907Z,994.85
2019-01-31T07:51:18.917Z,994.89
2019-01-31T07:52:18.930Z,994.88
2019-01-31T07:53:18.940Z,994.90
2019-01-31T07:54:18.947Z,994.91
2019-01-31T07:55:18.960Z,994.96
2019-01-31T07:56:18.968Z,994.91
2019-01-31T07:57:18.979Z,994.91
2019-01-31T07:58:20.522Z,994.97
2019-01-31T07:59:19.000Z,994.94
2019-01-31T08:00:19.011Z,994.92
2019-01-31T08:01:19.019Z,994.94
2019-01-31T08:02:19.028Z,994.94
2019-01-31T08:03:19.040Z,994.94
2019-01-31T08:04:19.050Z,994.95
2019-01-31T08:05:19.061Z,994.96
2019-01-31T08:06:19.071Z,994.99
2019-01-31T08:07:19.080Z,994.99
2019-01-31T08:08:19.091Z,995.00
2019-01-31T08:09:19.101Z,994.98
2019-01-31T08:10:19.112Z,995.01
2019-01-31T08:11:19.123Z,995.02
2019-01-31T08:12:19.133Z,995.05
2019-01-31T08:13:19.145Z,995.04
2019-01-31T08:14:19.153Z,995.05
2019-01-31T08:15:19.164Z,995.07
2019-01-31T08:16:19.174Z,995.12
2019-01-31T08:17:19.185Z,995.13
2019-01-31T08:18:19.195Z,995.09
2019-01-31T08:19:19.205Z,995.10
2019-01-31T08:20:19.215Z,995.18
2019-01-31T08:21:19.225Z,995.14
2019-01-31T08:22:19.235Z,995.17
2019-01-31T08:23:19.248Z,995.15
2019-01-31T08:24:19.257Z,995.13
2019-01-31T08:25:19.269Z,995.16
2019-01-31T08:26:19.278Z,995.19
2019-01-31T08:27:19.288Z,995.19
2019-01-31T08:28:19.299Z,995.17
2019-01-31T08:29:19.311Z,995.20
2019-01-31T08:30:19.322Z,995.19
2019-01-31T08:31:19.333Z,995.26
2019-01-31T08:32:19.344Z,995.22
2019-01-31T08:33:19.355Z,995.23
2019-01-31T08:34:19.364Z,995.20
2019-01-31T08:35:19.376Z,995.20
2019-01-31T08:36:19.386Z,995.22
2019-01-31T08:37:19.398Z,995.25
2019-01-31T08:38:19.410Z,995.21
2019-01-31T08:39:19.418Z,995.27
2019-01-31T08:40:19.431Z,995.22
2019-01-31T08:41:19.443Z,995.26
2019-01-31T08:42:19.455Z,995.28
2019-01-31T08:43:20.569Z,995.24
2019-01-31T08:44:19.473Z,995.30
2019-01-31T08:45:19.487Z,995.27
2019-01-31T08:46:19.494Z,995.27
2019-01-31T08:47:19.509Z,995.30
2019-01-31T08:48:19.520Z,995.27
2019-01-31T08:49:19.530Z,995.33
2019-01-31T08:50:19.539Z,995.31
2019-01-31T08:51:19.555Z,995.32
2019-01-31T08:52:19.564Z,995.33
2019-01-31T08:53:19.583Z,995.32
2019-01-31T08:54:19.586Z,995.39
2019-01-31T08:55:19.595Z,995.33
2019-01-31T08:56:19.624Z,995.33
2019-01-31T08:57:19.620Z,995.39
2019-01-31T08:58:19.630Z,995.38
2019-01-31T08:59:19.644Z,995.35
2019-01-31T09:00:19.655Z,995.39
2019-01-31T09:01:19.667Z,995.39
2019-01-31T09:02:19.674Z,995.41
2019-01-31T09:03:19.797Z,995.43
2019-01-31T09:04:19.700Z,995.45
2019-01-31T09:05:19.711Z,995.43
2019-01-31T09:06:19.721Z,995.44
2019-01-31T09:07:19.735Z,995.45
2019-01-31T09:08:19.754Z,995.41
2019-01-31T09:09:19.759Z,995.49
2019-01-31T09:10:19.774Z,995.52
2019-01-31T09:11:19.782Z,995.47
2019-01-31T09:12:19.793Z,995.50
2019-01-31T09:13:19.806Z,995.52
2019-01-31T09:14:19.816Z,995.52
2019-01-31T09:15:19.829Z,995.54
2019-01-31T09:16:19.842Z,995.56
2019-01-31T09:17:19.856Z,995.58
2019-01-31T09:18:19.864Z,995.58
2019-01-31T09:19:19.877Z,995.55
2019-01-31T09:20:19.890Z,995.58
2019-01-31T09:21:19.901Z,995.55
2019-01-31T09:22:19.914Z,995.55
2019-01-31T09:23:19.925Z,995.57
2019-01-31T09:24:19.937Z,995.58
2019-01-31T09:25:20.067Z,995.59
2019-01-31T09:26:19.963Z,995.63
2019-01-31T09:27:19.974Z,995.58
2019-01-31T09:28:19.988Z,995.56
2019-01-31T09:29:19.997Z,995.57
2019-01-31T09:30:20.012Z,995.56
2019-01-31T09:31:20.022Z,995.59
2019-01-31T09:32:20.129Z,995.58
2019-01-31T09:33:20.051Z,995.56
2019-01-31T09:34:20.057Z,995.58
2019-01-31T09:35:20.071Z,995.58
2019-01-31T09:36:20.087Z,995.59
2019-01-31T09:37:20.096Z,995.61
2019-01-31T09:38:20.108Z,995.63
2019-01-31T09:39:20.120Z,995.57
2019-01-31T09:40:20.131Z,995.60
2019-01-31T09:41:20.146Z,995.57
2019-01-31T09:42:26.306Z,995.62
2019-01-31T09:43:20.170Z,995.63
2019-01-31T09:44:20.184Z,995.62
2019-01-31T09:45:20.195Z,995.64
2019-01-31T09:46:20.208Z,995.58
2019-01-31T09:47:20.219Z,995.58
2019-01-31T09:48:20.232Z,995.58
2019-01-31T09:49:20.250Z,995.59
2019-01-31T09:50:20.256Z,995.57
2019-01-31T09:51:20.268Z,995.56
2019-01-31T09:52:20.287Z,995.55
2019-01-31T09:53:20.295Z,995.54
2019-01-31T09:54:20.306Z,995.59
2019-01-31T09:55:20.374Z,995.54
2019-01-31T09:56:20.330Z,995.50
2019-01-31T09:57:20.344Z,995.53
2019-01-31T09:58:20.366Z,995.55
2019-01-31T09:59:20.554Z,995.55
2019-01-31T10:00:27.088Z,995.61
2019-01-31T10:01:20.440Z,995.53
2019-01-31T10:02:20.441Z,995.50
2019-01-31T10:03:20.537Z,995.52
2019-01-31T10:04:20.500Z,995.52
2019-01-31T10:05:20.499Z,995.48
2019-01-31T10:06:20.506Z,995.56
2019-01-31T10:07:20.503Z,995.56
2019-01-31T10:08:20.508Z,995.56
2019-01-31T10:09:20.505Z,995.51
2019-01-31T10:10:20.523Z,995.53
2019-01-31T10:11:20.520Z,995.55
2019-01-31T10:12:23.217Z,995.50
2019-01-31T10:13:20.545Z,995.46
2019-01-31T10:14:20.652Z,995.51
2019-01-31T10:15:20.573Z,995.48
2019-01-31T10:16:20.602Z,995.46
2019-01-31T10:17:20.762Z,995.48
2019-01-31T10:18:20.653Z,995.46
2019-01-31T10:19:23.167Z,995.51
2019-01-31T10:20:20.760Z,995.44
2019-01-31T10:21:20.653Z,995.47
2019-01-31T10:22:20.679Z,995.42
2019-01-31T10:23:20.690Z,995.47
2019-01-31T10:24:20.694Z,995.43
2019-01-31T10:25:20.720Z,995.48
2019-01-31T10:26:20.710Z,995.43
2019-01-31T10:27:20.722Z,995.45
2019-01-31T10:28:20.735Z,995.39
2019-01-31T10:29:20.745Z,995.44
2019-01-31T10:30:20.759Z,995.39
2019-01-31T10:31:20.773Z,995.39
2019-01-31T10:32:20.784Z,995.38
2019-01-31T10:33:20.819Z,995.31
2019-01-31T10:34:22.339Z,995.31
2019-01-31T10:35:20.821Z,995.38
2019-01-31T10:36:20.835Z,995.33
2019-01-31T10:37:20.846Z,995.35
2019-01-31T10:38:20.859Z,995.35
2019-01-31T10:39:20.870Z,995.35
2019-01-31T10:40:20.886Z,995.34
2019-01-31T10:41:20.899Z,995.33
2019-01-31T10:42:20.910Z,995.33
2019-01-31T10:43:20.920Z,995.34
2019-01-31T10:44:20.935Z,995.35
2019-01-31T10:45:22.794Z,995.38
2019-01-31T10:46:20.960Z,995.35
2019-01-31T10:47:20.971Z,995.33
2019-01-31T10:48:20.986Z,995.32
2019-01-31T10:49:20.996Z,995.33
2019-01-31T10:50:21.009Z,995.32
2019-01-31T10:51:21.021Z,995.34
2019-01-31T10:52:21.033Z,995.31
2019-01-31T10:53:21.045Z,995.33
2019-01-31T10:54:21.057Z,995.34
2019-01-31T10:55:21.070Z,995.25
2019-01-31T10:56:21.083Z,995.28
2019-01-31T10:57:21.096Z,995.21
2019-01-31T10:58:21.108Z,995.22
2019-01-31T10:59:21.121Z,995.23
2019-01-31T11:00:21.133Z,995.21
2019-01-31T11:01:21.144Z,995.27
2019-01-31T11:02:21.157Z,995.26
2019-01-31T11:03:21.170Z,995.26
2019-01-31T11:04:21.180Z,995.28
2019-01-31T11:05:21.195Z,995.30
2019-01-31T11:06:21.207Z,995.25
2019-01-31T11:07:21.220Z,995.24
2019-01-31T11:08:21.235Z,995.24
2019-01-31T11:09:21.245Z,995.22
2019-01-31T11:10:21.256Z,995.24
2019-01-31T11:11:21.270Z,995.18
2019-01-31T11:12:21.280Z,995.17
2019-01-31T11:13:21.295Z,995.14
2019-01-31T11:14:21.306Z,995.18
2019-01-31T11:15:21.319Z,995.18
2019-01-31T11:16:21.335Z,995.20
2019-01-31T11:17:21.345Z,995.14
2019-01-31T11:18:21.360Z,995.17
2019-01-31T11:19:21.368Z,995.14
2019-01-31T11:20:21.382Z,995.13
2019-01-31T11:21:21.394Z,995.18
2019-01-31T11:22:21.407Z,995.22
2019-01-31T11:23:21.427Z,995.22
2019-01-31T11:24:21.433Z,995.21
2019-01-31T11:25:21.444Z,995.23
2019-01-31T11:26:21.456Z,995.19
2019-01-31T11:27:21.471Z,995.21
2019-01-31T11:28:21.486Z,995.21
2019-01-31T11:29:21.496Z,995.23
2019-01-31T11:30:21.512Z,995.21
2019-01-31T11:31:21.520Z,995.23
2019-01-31T11:32:21.537Z,995.17
2019-01-31T11:33:21.550Z,995.19
2019-01-31T11:34:32.447Z,995.16
2019-01-31T11:35:21.570Z,995.14
2019-01-31T11:36:21.583Z,995.16
2019-01-31T11:37:21.596Z,995.11
2019-01-31T11:38:21.609Z,995.17
2019-01-31T11:39:21.621Z,995.13
2019-01-31T11:40:21.634Z,995.11
2019-01-31T11:41:21.648Z,995.15
2019-01-31T11:42:21.659Z,995.11
2019-01-31T11:43:21.675Z,995.12
2019-01-31T11:44:21.686Z,995.13
2019-01-31T11:45:21.696Z,995.15
2019-01-31T11:46:21.711Z,995.18
2019-01-31T11:47:21.726Z,995.13
2019-01-31T11:48:21.735Z,995.18
2019-01-31T11:49:21.748Z,995.14
2019-01-31T11:50:21.761Z,995.14
2019-01-31T11:51:21.776Z,995.15
2019-01-31T11:52:21.789Z,995.10
2019-01-31T11:53:21.800Z,995.16
2019-01-31T11:54:21.810Z,995.11
2019-01-31T11:55:21.824Z,995.11
2019-01-31T11:56:21.839Z,995.11
2019-01-31T11:57:21.850Z,995.11
2019-01-31T11:58:21.861Z,995.16
2019-01-31T11:59:21.876Z,995.18
2019-01-31T12:00:21.890Z,995.18
2019-01-31T12:01:21.903Z,995.20
2019-01-31T12:02:21.914Z,995.17
2019-01-31T12:03:21.932Z,995.11
2019-01-31T12:04:22.051Z,995.18
2019-01-31T12:05:21.956Z,995.14
2019-01-31T12:06:21.967Z,995.17
2019-01-31T12:07:21.981Z,995.15
2019-01-31T12:08:21.995Z,995.19
2019-01-31T12:09:22.009Z,995.16
2019-01-31T12:10:22.022Z,995.18
2019-01-31T12:11:22.045Z,995.17
2019-01-31T12:12:22.045Z,995.15
2019-01-31T12:13:23.486Z,995.13
2019-01-31T12:14:22.073Z,995.09
2019-01-31T12:15:22.088Z,995.10
2019-01-31T12:16:22.103Z,995.14
2019-01-31T12:17:22.116Z,995.11
2019-01-31T12:18:22.129Z,995.13
2019-01-31T12:19:22.145Z,995.13
2019-01-31T12:20:22.157Z,995.14
2019-01-31T12:21:22.177Z,995.12
2019-01-31T12:22:22.262Z,995.16
2019-01-31T12:23:22.269Z,995.12
2019-01-31T12:24:22.263Z,995.13
2019-01-31T12:25:22.263Z,995.06
2019-01-31T12:26:22.266Z,995.11
2019-01-31T12:27:22.329Z,995.08
2019-01-31T12:28:22.327Z,995.10